ADDS METAR Data INFO
IDs: Format: Raw Decoded Include TAF

Data at: 2114 UTC 22 Oct 2017

KFSE 222055Z AUTO 21020G28KT 10SM CLR 15/M05 A2977 RMK AO2
KFSE 222035Z AUTO 22020G29KT 10SM CLR 17/M03 A2977 RMK AO2
KFSE 222015Z AUTO 22020G26KT 10SM CLR 17/M03 A2978 RMK AO2
KFSE 221955Z AUTO 20022G29KT 10SM CLR 16/M03 A2978 RMK AO2
KFSE 221934Z AUTO 21017G22KT 10SM CLR 16/M02 A2979 RMK AO2
KFSE 221915Z AUTO 21021G25KT 10SM CLR 16/M02 A2980 RMK AO2
KFSE 221855Z AUTO 21018G23KT 10SM CLR 16/M02 A2981 RMK AO2
KFSE 221834Z AUTO 22018G23KT 10SM CLR 15/M02 A2981 RMK AO2
KFSE 221815Z AUTO 23016G21KT 10SM CLR 14/M02 A2983 RMK AO2
KFSE 221755Z AUTO 23014G20KT 10SM CLR 14/M02 A2984 RMK AO2
KFSE 221734Z AUTO 24012G17KT 10SM CLR 13/M01 A2985 RMK AO2
KFSE 221715Z AUTO 23012G16KT 10SM CLR 13/M01 A2986 RMK AO2
KFSE 221654Z AUTO 23014KT 10SM CLR 12/00 A2986 RMK AO2
KFSE 221635Z AUTO 23016G20KT 10SM CLR 11/00 A2987 RMK AO2
KFSE 221615Z AUTO 23013KT 10SM CLR 10/00 A2986 RMK AO2
KFSE 221554Z AUTO 23014G17KT 10SM CLR 09/00 A2986 RMK AO2
KFSE 221535Z AUTO 23012G18KT 10SM CLR 09/01 A2986 RMK AO2
KFSE 221515Z AUTO 23012KT 10SM CLR 08/01 A2986 RMK AO2
KFSE 221454Z AUTO 22014G18KT 10SM CLR 07/01 A2986 RMK AO2
KFSE 221435Z AUTO 22013KT 10SM CLR 06/01 A2985 RMK AO2
KFSE 221415Z AUTO 21011KT 10SM CLR 05/01 A2985 RMK AO2
KFSE 221354Z AUTO 21011KT 10SM CLR 04/01 A2985 RMK AO2
KFSE 221335Z AUTO 22011KT 10SM CLR 03/00 A2983 RMK AO2
KFSE 221315Z AUTO 22011KT 10SM CLR 02/M01 A2982 RMK AO2
KFSE 221254Z AUTO 21010KT 10SM CLR 02/M01 A2981 RMK AO2
KFSE 221235Z AUTO 21009KT 10SM CLR 03/M01 A2980 RMK AO2
KFSE 221215Z AUTO 22009KT 10SM CLR 03/M01 A2979 RMK AO2
KFSE 221154Z AUTO 23011KT 10SM CLR 04/01 A2979 RMK AO2
KFSE 221135Z AUTO 24012G18KT 10SM CLR 04/01 A2979 RMK AO2
KFSE 221115Z AUTO 23010G15KT 10SM CLR 04/01 A2978 RMK AO2
KFSE 221054Z AUTO 22012KT 10SM CLR 04/01 A2979 RMK AO2
KFSE 221035Z AUTO 22014KT 10SM CLR 05/02 A2978 RMK AO2
KFSE 221015Z AUTO 22015G18KT 10SM CLR 05/02 A2977 RMK AO2
KFSE 220954Z AUTO 22011KT 10SM CLR 06/02 A2976 RMK AO2
KFSE 220935Z AUTO 23011G15KT 10SM SCT050 06/02 A2975 RMK AO2
KFSE 220915Z AUTO 23010G15KT 10SM BKN050 07/02 A2975 RMK AO2
KFSE 220854Z AUTO 25011G20KT 10SM OVC050 07/02 A2975 RMK AO2
KFSE 220835Z AUTO 24014KT 10SM OVC050 07/02 A2975 RMK AO2
KFSE 220815Z AUTO 24014G20KT 10SM SCT036 OVC050 08/02 A2974 RMK AO2
KFSE 220754Z AUTO 24013G20KT 10SM BKN034 BKN042 OVC050 08/02 A2974 RMK AO2
KFSE 220735Z AUTO 24011G18KT 10SM OVC040 08/02 A2972 RMK AO2
KFSE 220715Z AUTO 23009KT 10SM BKN037 OVC047 08/02 A2972 RMK AO2
KFSE 220654Z AUTO 25012KT 10SM SCT032 SCT039 OVC047 08/02 A2972 RMK AO2
KFSE 220635Z AUTO 25012G17KT 10SM OVC034 08/03 A2972 RMK AO2
KFSE 220615Z AUTO 23012G18KT 10SM SCT034 OVC050 08/04 A2971 RMK AO2
KFSE 220554Z AUTO 22009KT 10SM OVC060 08/04 A2968 RMK AO2
KFSE 220535Z AUTO 23009KT 10SM OVC060 08/04 A2968 RMK AO2
KFSE 220515Z AUTO 22008KT 10SM SCT046 OVC050 08/04 A2967 RMK AO2
KFSE 220455Z AUTO 22010KT 10SM OVC044 08/06 A2968 RMK AO2
KFSE 220435Z AUTO 22010G15KT 10SM OVC040 08/06 A2968 RMK AO2
KFSE 220414Z AUTO 21010KT 10SM BKN036 OVC060 09/06 A2969 RMK AO2
KFSE 220355Z AUTO 21012KT 10SM SCT036 OVC060 09/06 A2969 RMK AO2
KFSE 220335Z AUTO 22009KT 10SM BKN060 OVC070 09/05 A2967 RMK AO2
KFSE 220314Z AUTO 23010KT 10SM OVC070 09/05 A2967 RMK AO2
KFSE 220255Z AUTO 23010G16KT 10SM OVC070 09/05 A2967 RMK AO2
KFSE 220235Z AUTO 24011KT 10SM OVC070 09/05 A2968 RMK AO2
KFSE 220214Z AUTO 24013G17KT 10SM SCT029 OVC070 09/05 A2968 RMK AO2
KFSE 220155Z AUTO 22010G15KT 10SM SCT029 BKN080 08/05 A2967 RMK AO2
KFSE 220135Z AUTO 22009KT 10SM SCT080 08/05 A2966 RMK AO2
KFSE 220114Z AUTO 23008KT 10SM SCT080 08/05 A2963 RMK AO2
KFSE 220055Z AUTO 23007KT 10SM CLR 09/05 A2963 RMK AO2
KFSE 220035Z AUTO 23008KT 10SM CLR 09/06 A2961 RMK AO2
KFSE 220014Z AUTO 24007KT 10SM CLR 10/06 A2961 RMK AO2
KFSE 212355Z AUTO 25009KT 10SM SCT050 SCT065 11/07 A2959 RMK AO2
KFSE 212335Z AUTO 26010KT 10SM BKN049 12/07 A2959 RMK AO2 LTG DSNT NE
KFSE 212314Z AUTO 25011KT 10SM BKN049 OVC110 12/08 A2959 RMK AO2
KFSE 212255Z AUTO 21010KT 10SM BKN049 OVC110 11/09 A2957 RMK AO2
KFSE 212235Z AUTO 19007KT 10SM VCTS OVC047 11/09 A2956 RMK AO2
KFSE 212214Z AUTO 19008KT 10SM OVC041 11/09 A2956 RMK AO2 LTG DSNT SE AND NW
KFSE 212155Z AUTO 20008KT 10SM -DZ OVC041 11/09 A2956 RMK AO2 LTG DSNT NW
KFSE 212135Z AUTO 19007KT 10SM RA OVC037 11/09 A2955 RMK AO2
KFSE 212115Z AUTO 22006KT 10SM BKN035 12/09 A2953 RMK AO2
KFSE 212055Z AUTO 24007G10KT 5SM DZ SCT023 OVC031 11/08 A2954 RMK AO2
KFSE 212035Z AUTO 22010G18KT 10SM BKN021 OVC029 13/06 A2954 RMK AO2
KFSE 212015Z AUTO 21007KT 10SM OVC017 13/09 A2951 RMK AO2
KFSE 211955Z AUTO 19006KT 10SM BKN015 BKN035 BKN070 13/10 A2950 RMK AO2
KFSE 211934Z AUTO 21008KT 7SM -DZ SCT013 BKN019 BKN029 13/11 A2950 RMK AO2
KFSE 211915Z AUTO 22007G14KT 3SM -RA BKN015 OVC021 12/10 A2951 RMK AO2
KFSE 211855Z AUTO 23006KT 10SM OVC015 13/09 A2951 RMK AO2
KFSE 211834Z AUTO 24004KT 10SM OVC015 13/10 A2951 RMK AO2
KFSE 211815Z AUTO 25008KT 10SM SCT009 OVC015 14/10 A2950 RMK AO2
KFSE 211754Z AUTO 25012G20KT 10SM SCT009 OVC017 17/12 A2950 RMK AO2
KFSE 211735Z AUTO 17012KT 10SM OVC017 17/13 A2949 RMK AO2
KFSE 211715Z AUTO 18013G19KT 5SM HZ OVC019 16/13 A2950 RMK AO2
KFSE 211654Z AUTO 17014G21KT 7SM OVC021 17/13 A2949 RMK AO2
KFSE 211635Z AUTO 17016G22KT 10SM BKN021 OVC034 17/13 A2949 RMK AO2
KFSE 211615Z AUTO 17015KT 10SM BKN021 OVC042 17/13 A2949 RMK AO2
KFSE 211555Z AUTO 17018G21KT 10SM SCT023 OVC040 18/13 A2949 RMK AO2
KFSE 211535Z AUTO 16016G19KT 10SM SCT023 BKN028 OVC038 18/13 A2948 RMK AO2
KFSE 211515Z AUTO 16016G22KT 10SM SCT025 BKN038 18/13 A2947 RMK AO2
KFSE 211455Z AUTO 16017G20KT 10SM SCT036 17/13 A2946 RMK AO2
KFSE 211435Z AUTO 16014G21KT 10SM SCT032 17/13 A2946 RMK AO2
KFSE 211415Z AUTO 16015G22KT 10SM BKN032 17/13 A2946 RMK AO2
KFSE 211355Z AUTO 16016KT 10SM SCT032 17/13 A2946 RMK AO2
KFSE 211335Z AUTO 16014G22KT 10SM CLR 16/12 A2946 RMK AO2
KFSE 211314Z AUTO 16014G21KT 10SM CLR 16/12 A2945 RMK AO2
KFSE 211255Z AUTO 16015G22KT 10SM CLR 16/12 A2945 RMK AO2
KFSE 211235Z AUTO 16014G23KT 10SM CLR 16/12 A2945 RMK AO2
KFSE 211214Z AUTO 16014KT 10SM CLR 16/12 A2944 RMK AO2
KFSE 211155Z AUTO 16016G20KT 10SM CLR 16/12 A2945 RMK AO2
KFSE 211135Z AUTO 16017G22KT 10SM CLR 16/12 A2945 RMK AO2
KFSE 211114Z AUTO 16017G22KT 10SM CLR 17/12 A2945 RMK AO2
KFSE 211055Z AUTO 17016G23KT 10SM CLR 17/12 A2945 RMK AO2
KFSE 211035Z AUTO 16018G28KT 10SM CLR 17/12 A2944 RMK AO2
KFSE 211014Z AUTO 17019G25KT 10SM CLR 17/12 A2944 RMK AO2
KFSE 210955Z AUTO 16018G24KT 10SM CLR 17/12 A2943 RMK AO2
KFSE 210935Z AUTO 16017G25KT 10SM CLR 17/12 A2943 RMK AO2